sensor_id;sensor_type;location;lat;lon;timestamp;P1;durP1;ratioP1;P2;durP2;ratioP2
6053;SDS011;3055;50.886;14.814;2024-01-11T00:01:45;22.67;;;14.93;;
6053;SDS011;3055;50.886;14.814;2024-01-11T00:04:12;23.93;;;14.97;;
6053;SDS011;3055;50.886;14.814;2024-01-11T00:06:40;27.47;;;13.93;;
6053;SDS011;3055;50.886;14.814;2024-01-11T00:09:10;30.67;;;15.67;;
6053;SDS011;3055;50.886;14.814;2024-01-11T00:11:37;26.57;;;15.13;;
6053;SDS011;3055;50.886;14.814;2024-01-11T00:14:05;24.37;;;13.60;;
6053;SDS011;3055;50.886;14.814;2024-01-11T00:16:32;22.13;;;13.67;;
6053;SDS011;3055;50.886;14.814;2024-01-11T00:19:00;28.03;;;14.00;;
6053;SDS011;3055;50.886;14.814;2024-01-11T00:21:27;22.80;;;14.07;;
6053;SDS011;3055;50.886;14.814;2024-01-11T00:23:54;24.13;;;14.20;;
6053;SDS011;3055;50.886;14.814;2024-01-11T00:26:23;21.07;;;13.20;;
6053;SDS011;3055;50.886;14.814;2024-01-11T00:28:50;20.70;;;13.87;;
6053;SDS011;3055;50.886;14.814;2024-01-11T00:31:17;27.73;;;13.33;;
6053;SDS011;3055;50.886;14.814;2024-01-11T00:33:44;23.20;;;12.87;;
6053;SDS011;3055;50.886;14.814;2024-01-11T00:36:16;20.03;;;12.73;;
6053;SDS011;3055;50.886;14.814;2024-01-11T00:38:45;22.40;;;13.23;;
6053;SDS011;3055;50.886;14.814;2024-01-11T00:41:12;23.80;;;14.17;;
6053;SDS011;3055;50.886;14.814;2024-01-11T00:43:41;19.10;;;12.83;;
6053;SDS011;3055;50.886;14.814;2024-01-11T00:46:08;20.93;;;13.20;;
6053;SDS011;3055;50.886;14.814;2024-01-11T00:48:36;28.40;;;15.23;;
6053;SDS011;3055;50.886;14.814;2024-01-11T00:51:04;19.80;;;13.60;;
6053;SDS011;3055;50.886;14.814;2024-01-11T00:53:32;22.17;;;14.57;;
6053;SDS011;3055;50.886;14.814;2024-01-11T00:55:59;24.63;;;14.57;;
6053;SDS011;3055;50.886;14.814;2024-01-11T00:58:27;23.93;;;14.77;;
6053;SDS011;3055;50.886;14.814;2024-01-11T01:00:56;22.60;;;13.90;;
6053;SDS011;3055;50.886;14.814;2024-01-11T01:03:23;27.30;;;15.30;;
6053;SDS011;3055;50.886;14.814;2024-01-11T01:05:51;21.43;;;15.10;;
6053;SDS011;3055;50.886;14.814;2024-01-11T01:08:19;22.37;;;14.67;;
6053;SDS011;3055;50.886;14.814;2024-01-11T01:10:46;24.07;;;14.30;;
6053;SDS011;3055;50.886;14.814;2024-01-11T01:13:13;23.17;;;15.83;;
6053;SDS011;3055;50.886;14.814;2024-01-11T01:15:40;22.60;;;14.53;;
6053;SDS011;3055;50.886;14.814;2024-01-11T01:18:09;24.50;;;14.27;;
6053;SDS011;3055;50.886;14.814;2024-01-11T01:20:36;24.37;;;14.60;;
6053;SDS011;3055;50.886;14.814;2024-01-11T01:23:03;25.00;;;14.70;;
6053;SDS011;3055;50.886;14.814;2024-01-11T01:25:30;25.73;;;15.87;;
6053;SDS011;3055;50.886;14.814;2024-01-11T01:27:58;24.67;;;14.93;;
6053;SDS011;3055;50.886;14.814;2024-01-11T01:30:26;25.17;;;14.67;;
6053;SDS011;3055;50.886;14.814;2024-01-11T01:32:53;26.23;;;14.80;;
6053;SDS011;3055;50.886;14.814;2024-01-11T01:35:22;26.43;;;15.33;;
6053;SDS011;3055;50.886;14.814;2024-01-11T01:37:49;26.57;;;15.97;;
6053;SDS011;3055;50.886;14.814;2024-01-11T01:40:16;27.33;;;14.83;;
6053;SDS011;3055;50.886;14.814;2024-01-11T01:42:44;22.03;;;15.33;;
6053;SDS011;3055;50.886;14.814;2024-01-11T01:45:12;24.90;;;15.73;;
6053;SDS011;3055;50.886;14.814;2024-01-11T01:47:39;21.83;;;15.33;;
6053;SDS011;3055;50.886;14.814;2024-01-11T01:50:08;23.63;;;14.37;;
6053;SDS011;3055;50.886;14.814;2024-01-11T01:52:39;22.50;;;14.50;;
6053;SDS011;3055;50.886;14.814;2024-01-11T01:55:08;24.80;;;15.40;;
6053;SDS011;3055;50.886;14.814;2024-01-11T01:57:37;23.23;;;15.57;;
6053;SDS011;3055;50.886;14.814;2024-01-11T02:00:08;26.33;;;15.40;;
6053;SDS011;3055;50.886;14.814;2024-01-11T02:02:37;24.77;;;15.70;;
6053;SDS011;3055;50.886;14.814;2024-01-11T02:05:06;23.57;;;13.67;;
6053;SDS011;3055;50.886;14.814;2024-01-11T02:07:34;25.53;;;13.30;;
6053;SDS011;3055;50.886;14.814;2024-01-11T02:10:03;27.57;;;15.20;;
6053;SDS011;3055;50.886;14.814;2024-01-11T02:12:31;23.73;;;15.70;;
6053;SDS011;3055;50.886;14.814;2024-01-11T02:15:00;23.57;;;15.57;;
6053;SDS011;3055;50.886;14.814;2024-01-11T02:17:29;21.20;;;13.90;;
6053;SDS011;3055;50.886;14.814;2024-01-11T02:19:56;22.03;;;14.60;;
6053;SDS011;3055;50.886;14.814;2024-01-11T02:22:24;19.93;;;13.73;;
6053;SDS011;3055;50.886;14.814;2024-01-11T02:24:57;26.17;;;15.00;;
6053;SDS011;3055;50.886;14.814;2024-01-11T02:27:24;23.67;;;14.03;;
6053;SDS011;3055;50.886;14.814;2024-01-11T02:29:51;19.57;;;13.63;;
6053;SDS011;3055;50.886;14.814;2024-01-11T02:32:19;24.27;;;15.40;;
6053;SDS011;3055;50.886;14.814;2024-01-11T02:34:46;24.70;;;14.40;;
6053;SDS011;3055;50.886;14.814;2024-01-11T02:37:14;22.40;;;13.97;;
6053;SDS011;3055;50.886;14.814;2024-01-11T02:39:41;21.93;;;14.17;;
6053;SDS011;3055;50.886;14.814;2024-01-11T02:42:10;22.73;;;14.17;;
6053;SDS011;3055;50.886;14.814;2024-01-11T02:44:37;24.47;;;16.27;;
6053;SDS011;3055;50.886;14.814;2024-01-11T02:47:04;22.47;;;14.67;;
6053;SDS011;3055;50.886;14.814;2024-01-11T02:49:31;25.10;;;15.77;;
6053;SDS011;3055;50.886;14.814;2024-01-11T02:51:58;20.50;;;13.90;;
6053;SDS011;3055;50.886;14.814;2024-01-11T02:54:25;24.00;;;13.97;;
6053;SDS011;3055;50.886;14.814;2024-01-11T02:56:53;19.20;;;14.53;;
6053;SDS011;3055;50.886;14.814;2024-01-11T02:59:23;21.13;;;14.17;;
6053;SDS011;3055;50.886;14.814;2024-01-11T03:01:51;20.37;;;13.33;;
6053;SDS011;3055;50.886;14.814;2024-01-11T03:04:18;30.30;;;16.50;;
6053;SDS011;3055;50.886;14.814;2024-01-11T03:06:45;22.10;;;14.27;;
6053;SDS011;3055;50.886;14.814;2024-01-11T03:09:12;25.07;;;16.77;;
6053;SDS011;3055;50.886;14.814;2024-01-11T03:11:39;20.83;;;13.70;;
6053;SDS011;3055;50.886;14.814;2024-01-11T03:14:07;23.53;;;14.37;;
6053;SDS011;3055;50.886;14.814;2024-01-11T03:16:35;27.97;;;15.93;;
6053;SDS011;3055;50.886;14.814;2024-01-11T03:19:04;25.63;;;15.57;;
6053;SDS011;3055;50.886;14.814;2024-01-11T03:21:32;24.00;;;15.77;;
6053;SDS011;3055;50.886;14.814;2024-01-11T03:23:59;25.17;;;15.17;;
6053;SDS011;3055;50.886;14.814;2024-01-11T03:26:26;22.97;;;13.57;;
6053;SDS011;3055;50.886;14.814;2024-01-11T03:28:53;30.10;;;16.87;;
6053;SDS011;3055;50.886;14.814;2024-01-11T03:31:20;26.70;;;14.63;;
6053;SDS011;3055;50.886;14.814;2024-01-11T03:33:49;23.90;;;14.57;;
6053;SDS011;3055;50.886;14.814;2024-01-11T03:36:16;23.63;;;14.50;;
6053;SDS011;3055;50.886;14.814;2024-01-11T03:38:43;25.03;;;15.97;;
6053;SDS011;3055;50.886;14.814;2024-01-11T03:41:10;26.30;;;14.67;;
6053;SDS011;3055;50.886;14.814;2024-01-11T03:43:38;24.10;;;15.00;;
6053;SDS011;3055;50.886;14.814;2024-01-11T03:46:05;22.87;;;12.77;;
6053;SDS011;3055;50.886;14.814;2024-01-11T03:48:32;19.77;;;13.83;;
6053;SDS011;3055;50.886;14.814;2024-01-11T03:51:02;22.90;;;13.87;;
6053;SDS011;3055;50.886;14.814;2024-01-11T03:53:30;24.23;;;13.03;;
6053;SDS011;3055;50.886;14.814;2024-01-11T03:56:00;21.33;;;12.57;;
6053;SDS011;3055;50.886;14.814;2024-01-11T03:58:28;23.07;;;14.07;;
6053;SDS011;3055;50.886;14.814;2024-01-11T04:00:55;21.33;;;12.33;;
6053;SDS011;3055;50.886;14.814;2024-01-11T04:03:22;21.33;;;14.20;;
6053;SDS011;3055;50.886;14.814;2024-01-11T04:05:49;22.40;;;13.70;;
6053;SDS011;3055;50.886;14.814;2024-01-11T04:08:17;23.77;;;14.10;;
6053;SDS011;3055;50.886;14.814;2024-01-11T04:10:44;25.20;;;13.67;;
6053;SDS011;3055;50.886;14.814;2024-01-11T04:13:11;22.27;;;13.63;;
6053;SDS011;3055;50.886;14.814;2024-01-11T04:15:39;25.40;;;14.17;;
6053;SDS011;3055;50.886;14.814;2024-01-11T04:18:06;26.97;;;14.80;;
6053;SDS011;3055;50.886;14.814;2024-01-11T04:20:33;28.67;;;15.07;;
6053;SDS011;3055;50.886;14.814;2024-01-11T04:23:00;19.57;;;13.43;;
6053;SDS011;3055;50.886;14.814;2024-01-11T04:25:29;20.60;;;13.33;;
6053;SDS011;3055;50.886;14.814;2024-01-11T04:27:56;25.00;;;13.63;;
6053;SDS011;3055;50.886;14.814;2024-01-11T04:30:23;21.50;;;13.37;;
6053;SDS011;3055;50.886;14.814;2024-01-11T04:32:50;24.30;;;15.10;;
6053;SDS011;3055;50.886;14.814;2024-01-11T04:35:17;27.00;;;15.63;;
6053;SDS011;3055;50.886;14.814;2024-01-11T04:37:45;25.50;;;15.17;;
6053;SDS011;3055;50.886;14.814;2024-01-11T04:40:12;25.53;;;16.47;;
6053;SDS011;3055;50.886;14.814;2024-01-11T04:42:41;25.17;;;15.17;;
6053;SDS011;3055;50.886;14.814;2024-01-11T04:45:09;27.30;;;15.30;;
6053;SDS011;3055;50.886;14.814;2024-01-11T04:47:37;28.60;;;16.10;;
6053;SDS011;3055;50.886;14.814;2024-01-11T04:50:04;24.33;;;14.50;;
6053;SDS011;3055;50.886;14.814;2024-01-11T04:52:32;25.73;;;15.70;;
6053;SDS011;3055;50.886;14.814;2024-01-11T04:54:59;27.13;;;15.83;;
6053;SDS011;3055;50.886;14.814;2024-01-11T04:57:27;23.83;;;14.70;;
6053;SDS011;3055;50.886;14.814;2024-01-11T04:59:55;26.83;;;16.20;;
6053;SDS011;3055;50.886;14.814;2024-01-11T05:02:22;24.27;;;15.50;;
6053;SDS011;3055;50.886;14.814;2024-01-11T05:04:50;28.80;;;16.17;;
6053;SDS011;3055;50.886;14.814;2024-01-11T05:07:17;27.20;;;15.87;;
6053;SDS011;3055;50.886;14.814;2024-01-11T05:09:44;25.07;;;15.10;;
6053;SDS011;3055;50.886;14.814;2024-01-11T05:12:13;26.00;;;16.37;;
6053;SDS011;3055;50.886;14.814;2024-01-11T05:14:41;25.97;;;16.77;;
6053;SDS011;3055;50.886;14.814;2024-01-11T05:17:10;23.63;;;15.23;;
6053;SDS011;3055;50.886;14.814;2024-01-11T05:19:37;27.40;;;15.10;;
6053;SDS011;3055;50.886;14.814;2024-01-11T05:22:04;24.07;;;16.20;;
6053;SDS011;3055;50.886;14.814;2024-01-11T05:24:31;24.60;;;15.80;;
6053;SDS011;3055;50.886;14.814;2024-01-11T05:26:58;29.77;;;15.17;;
6053;SDS011;3055;50.886;14.814;2024-01-11T05:29:26;27.17;;;16.37;;
6053;SDS011;3055;50.886;14.814;2024-01-11T05:31:53;26.10;;;15.33;;
6053;SDS011;3055;50.886;14.814;2024-01-11T05:34:22;25.33;;;15.90;;
6053;SDS011;3055;50.886;14.814;2024-01-11T05:36:50;22.50;;;16.13;;
6053;SDS011;3055;50.886;14.814;2024-01-11T05:39:17;30.57;;;17.57;;
6053;SDS011;3055;50.886;14.814;2024-01-11T05:41:45;28.30;;;16.30;;
6053;SDS011;3055;50.886;14.814;2024-01-11T05:44:12;24.03;;;16.20;;
6053;SDS011;3055;50.886;14.814;2024-01-11T05:46:39;25.63;;;15.97;;
6053;SDS011;3055;50.886;14.814;2024-01-11T05:49:07;31.77;;;17.27;;
6053;SDS011;3055;50.886;14.814;2024-01-11T05:51:36;25.90;;;16.43;;
6053;SDS011;3055;50.886;14.814;2024-01-11T05:54:04;30.03;;;14.73;;
6053;SDS011;3055;50.886;14.814;2024-01-11T05:56:32;27.60;;;16.83;;
6053;SDS011;3055;50.886;14.814;2024-01-11T05:59:00;32.97;;;16.87;;
6053;SDS011;3055;50.886;14.814;2024-01-11T06:01:27;33.40;;;17.03;;
6053;SDS011;3055;50.886;14.814;2024-01-11T06:03:55;30.37;;;16.53;;
6053;SDS011;3055;50.886;14.814;2024-01-11T06:06:22;28.83;;;16.17;;
6053;SDS011;3055;50.886;14.814;2024-01-11T06:08:51;32.90;;;17.97;;
6053;SDS011;3055;50.886;14.814;2024-01-11T06:11:19;34.37;;;18.67;;
6053;SDS011;3055;50.886;14.814;2024-01-11T06:13:46;35.60;;;18.07;;
6053;SDS011;3055;50.886;14.814;2024-01-11T06:16:13;32.43;;;18.50;;
6053;SDS011;3055;50.886;14.814;2024-01-11T06:18:41;27.83;;;17.47;;
6053;SDS011;3055;50.886;14.814;2024-01-11T06:21:08;28.10;;;17.83;;
6053;SDS011;3055;50.886;14.814;2024-01-11T06:23:35;29.47;;;17.63;;
6053;SDS011;3055;50.886;14.814;2024-01-11T06:26:04;28.00;;;17.37;;
6053;SDS011;3055;50.886;14.814;2024-01-11T06:28:32;29.63;;;17.07;;
6053;SDS011;3055;50.886;14.814;2024-01-11T06:31:00;33.00;;;17.83;;
6053;SDS011;3055;50.886;14.814;2024-01-11T06:33:28;32.80;;;18.57;;
6053;SDS011;3055;50.886;14.814;2024-01-11T06:35:57;35.83;;;20.13;;
6053;SDS011;3055;50.886;14.814;2024-01-11T06:38:25;36.07;;;19.90;;
6053;SDS011;3055;50.886;14.814;2024-01-11T06:40:52;29.83;;;19.63;;
6053;SDS011;3055;50.886;14.814;2024-01-11T06:43:21;29.20;;;18.07;;
6053;SDS011;3055;50.886;14.814;2024-01-11T06:45:48;31.03;;;19.33;;
6053;SDS011;3055;50.886;14.814;2024-01-11T06:48:17;30.57;;;18.40;;
6053;SDS011;3055;50.886;14.814;2024-01-11T06:50:44;34.53;;;18.87;;
6053;SDS011;3055;50.886;14.814;2024-01-11T06:53:12;28.93;;;19.40;;
6053;SDS011;3055;50.886;14.814;2024-01-11T06:55:39;31.23;;;17.87;;
6053;SDS011;3055;50.886;14.814;2024-01-11T06:58:09;36.70;;;20.07;;
6053;SDS011;3055;50.886;14.814;2024-01-11T07:00:37;35.00;;;18.50;;
6053;SDS011;3055;50.886;14.814;2024-01-11T07:03:08;33.70;;;16.77;;
6053;SDS011;3055;50.886;14.814;2024-01-11T07:05:35;29.13;;;16.77;;
6053;SDS011;3055;50.886;14.814;2024-01-11T07:08:04;29.03;;;18.30;;
6053;SDS011;3055;50.886;14.814;2024-01-11T07:10:32;29.70;;;16.87;;
6053;SDS011;3055;50.886;14.814;2024-01-11T07:12:59;26.70;;;17.37;;
6053;SDS011;3055;50.886;14.814;2024-01-11T07:15:26;33.70;;;18.03;;
6053;SDS011;3055;50.886;14.814;2024-01-11T07:17:56;30.03;;;17.13;;
6053;SDS011;3055;50.886;14.814;2024-01-11T07:20:24;30.13;;;19.00;;
6053;SDS011;3055;50.886;14.814;2024-01-11T07:22:51;32.67;;;17.80;;
6053;SDS011;3055;50.886;14.814;2024-01-11T07:25:18;26.97;;;16.97;;
6053;SDS011;3055;50.886;14.814;2024-01-11T07:27:45;35.83;;;19.27;;
6053;SDS011;3055;50.886;14.814;2024-01-11T07:30:13;32.07;;;18.80;;
6053;SDS011;3055;50.886;14.814;2024-01-11T07:32:40;33.50;;;21.13;;
6053;SDS011;3055;50.886;14.814;2024-01-11T07:35:09;31.07;;;19.80;;
6053;SDS011;3055;50.886;14.814;2024-01-11T07:37:38;32.43;;;19.67;;
6053;SDS011;3055;50.886;14.814;2024-01-11T07:40:05;40.47;;;20.73;;
6053;SDS011;3055;50.886;14.814;2024-01-11T07:42:36;38.53;;;20.73;;
6053;SDS011;3055;50.886;14.814;2024-01-11T07:45:04;36.73;;;19.50;;
6053;SDS011;3055;50.886;14.814;2024-01-11T07:47:34;34.10;;;19.87;;
6053;SDS011;3055;50.886;14.814;2024-01-11T07:50:02;38.90;;;20.33;;
6053;SDS011;3055;50.886;14.814;2024-01-11T07:52:33;35.20;;;20.97;;
6053;SDS011;3055;50.886;14.814;2024-01-11T07:55:01;37.30;;;21.50;;
6053;SDS011;3055;50.886;14.814;2024-01-11T07:57:32;36.23;;;20.87;;
6053;SDS011;3055;50.886;14.814;2024-01-11T07:59:59;36.47;;;20.53;;
6053;SDS011;3055;50.886;14.814;2024-01-11T08:02:28;43.43;;;22.03;;
6053;SDS011;3055;50.886;14.814;2024-01-11T08:04:55;45.37;;;21.30;;
6053;SDS011;3055;50.886;14.814;2024-01-11T08:07:23;38.07;;;21.33;;
6053;SDS011;3055;50.886;14.814;2024-01-11T08:09:52;39.23;;;21.60;;
6053;SDS011;3055;50.886;14.814;2024-01-11T08:12:20;36.40;;;21.23;;
6053;SDS011;3055;50.886;14.814;2024-01-11T08:14:48;34.90;;;21.33;;
6053;SDS011;3055;50.886;14.814;2024-01-11T08:17:15;36.63;;;22.83;;
6053;SDS011;3055;50.886;14.814;2024-01-11T08:19:43;86.97;;;41.03;;
6053;SDS011;3055;50.886;14.814;2024-01-11T08:22:10;46.10;;;26.40;;
6053;SDS011;3055;50.886;14.814;2024-01-11T08:24:38;52.10;;;26.20;;
6053;SDS011;3055;50.886;14.814;2024-01-11T08:27:07;51.30;;;26.83;;
6053;SDS011;3055;50.886;14.814;2024-01-11T08:29:34;44.53;;;25.77;;
6053;SDS011;3055;50.886;14.814;2024-01-11T08:32:01;35.37;;;22.73;;
6053;SDS011;3055;50.886;14.814;2024-01-11T08:34:29;36.13;;;22.17;;
6053;SDS011;3055;50.886;14.814;2024-01-11T08:36:57;39.17;;;22.20;;
6053;SDS011;3055;50.886;14.814;2024-01-11T08:39:24;34.10;;;22.00;;
6053;SDS011;3055;50.886;14.814;2024-01-11T08:41:51;38.57;;;22.43;;
6053;SDS011;3055;50.886;14.814;2024-01-11T08:44:19;34.87;;;22.00;;
6053;SDS011;3055;50.886;14.814;2024-01-11T08:46:47;34.33;;;21.67;;
6053;SDS011;3055;50.886;14.814;2024-01-11T08:49:14;40.67;;;21.20;;
6053;SDS011;3055;50.886;14.814;2024-01-11T08:51:41;34.80;;;21.40;;
6053;SDS011;3055;50.886;14.814;2024-01-11T08:54:08;40.07;;;22.30;;
6053;SDS011;3055;50.886;14.814;2024-01-11T08:56:36;32.40;;;21.53;;
6053;SDS011;3055;50.886;14.814;2024-01-11T08:59:05;34.23;;;22.27;;
6053;SDS011;3055;50.886;14.814;2024-01-11T09:01:35;35.73;;;22.20;;
6053;SDS011;3055;50.886;14.814;2024-01-11T09:04:02;35.10;;;22.33;;
6053;SDS011;3055;50.886;14.814;2024-01-11T09:06:30;36.97;;;21.23;;
6053;SDS011;3055;50.886;14.814;2024-01-11T09:08:59;36.10;;;23.07;;
6053;SDS011;3055;50.886;14.814;2024-01-11T09:11:26;34.60;;;22.27;;
6053;SDS011;3055;50.886;14.814;2024-01-11T09:13:54;40.97;;;24.17;;
6053;SDS011;3055;50.886;14.814;2024-01-11T09:16:22;37.03;;;21.90;;
6053;SDS011;3055;50.886;14.814;2024-01-11T09:18:51;33.17;;;22.07;;
6053;SDS011;3055;50.886;14.814;2024-01-11T09:21:18;34.60;;;21.97;;
6053;SDS011;3055;50.886;14.814;2024-01-11T09:23:45;37.37;;;23.17;;
6053;SDS011;3055;50.886;14.814;2024-01-11T09:26:13;40.80;;;24.80;;
6053;SDS011;3055;50.886;14.814;2024-01-11T09:28:41;43.33;;;25.47;;
6053;SDS011;3055;50.886;14.814;2024-01-11T09:31:09;56.67;;;32.07;;
6053;SDS011;3055;50.886;14.814;2024-01-11T09:33:36;53.23;;;29.90;;
6053;SDS011;3055;50.886;14.814;2024-01-11T09:36:07;52.27;;;30.90;;
6053;SDS011;3055;50.886;14.814;2024-01-11T09:38:34;60.70;;;33.10;;
6053;SDS011;3055;50.886;14.814;2024-01-11T09:41:05;86.60;;;46.00;;
6053;SDS011;3055;50.886;14.814;2024-01-11T09:43:35;85.00;;;43.73;;
6053;SDS011;3055;50.886;14.814;2024-01-11T09:46:03;88.00;;;47.50;;
6053;SDS011;3055;50.886;14.814;2024-01-11T09:48:32;81.63;;;44.10;;
6053;SDS011;3055;50.886;14.814;2024-01-11T09:51:01;71.10;;;41.13;;
6053;SDS011;3055;50.886;14.814;2024-01-11T09:53:31;60.97;;;35.17;;
6053;SDS011;3055;50.886;14.814;2024-01-11T09:56:01;54.47;;;33.20;;
6053;SDS011;3055;50.886;14.814;2024-01-11T09:58:31;55.47;;;32.20;;
6053;SDS011;3055;50.886;14.814;2024-01-11T10:01:01;52.60;;;34.07;;
6053;SDS011;3055;50.886;14.814;2024-01-11T10:03:33;49.87;;;30.80;;
6053;SDS011;3055;50.886;14.814;2024-01-11T10:06:00;49.77;;;30.77;;
6053;SDS011;3055;50.886;14.814;2024-01-11T10:08:30;46.60;;;27.87;;
6053;SDS011;3055;50.886;14.814;2024-01-11T10:10:58;39.20;;;25.30;;
6053;SDS011;3055;50.886;14.814;2024-01-11T10:13:27;39.60;;;26.00;;
6053;SDS011;3055;50.886;14.814;2024-01-11T10:16:04;42.53;;;25.90;;
6053;SDS011;3055;50.886;14.814;2024-01-11T10:18:33;40.83;;;27.03;;
6053;SDS011;3055;50.886;14.814;2024-01-11T10:21:00;46.13;;;27.67;;
6053;SDS011;3055;50.886;14.814;2024-01-11T10:23:28;48.67;;;30.43;;
6053;SDS011;3055;50.886;14.814;2024-01-11T10:25:59;45.10;;;28.73;;
6053;SDS011;3055;50.886;14.814;2024-01-11T10:28:27;47.33;;;28.90;;
6053;SDS011;3055;50.886;14.814;2024-01-11T10:30:55;54.87;;;32.33;;
6053;SDS011;3055;50.886;14.814;2024-01-11T10:33:23;55.47;;;33.80;;
6053;SDS011;3055;50.886;14.814;2024-01-11T10:35:50;56.07;;;36.27;;
6053;SDS011;3055;50.886;14.814;2024-01-11T10:38:18;58.50;;;37.47;;
6053;SDS011;3055;50.886;14.814;2024-01-11T10:40:48;63.10;;;37.13;;
6053;SDS011;3055;50.886;14.814;2024-01-11T10:43:17;45.37;;;31.83;;
6053;SDS011;3055;50.886;14.814;2024-01-11T10:45:48;58.67;;;36.03;;
6053;SDS011;3055;50.886;14.814;2024-01-11T10:48:19;57.40;;;33.43;;
6053;SDS011;3055;50.886;14.814;2024-01-11T10:50:49;52.73;;;30.63;;
6053;SDS011;3055;50.886;14.814;2024-01-11T10:53:28;50.80;;;32.33;;
6053;SDS011;3055;50.886;14.814;2024-01-11T10:56:05;49.87;;;29.67;;
6053;SDS011;3055;50.886;14.814;2024-01-11T10:58:33;47.70;;;31.33;;
6053;SDS011;3055;50.886;14.814;2024-01-11T11:01:01;61.40;;;33.77;;
6053;SDS011;3055;50.886;14.814;2024-01-11T11:03:29;73.17;;;39.00;;
6053;SDS011;3055;50.886;14.814;2024-01-11T11:05:58;98.60;;;53.90;;
6053;SDS011;3055;50.886;14.814;2024-01-11T11:08:26;99.17;;;53.60;;
6053;SDS011;3055;50.886;14.814;2024-01-11T11:10:56;123.83;;;61.47;;
6053;SDS011;3055;50.886;14.814;2024-01-11T11:13:26;122.70;;;61.13;;
6053;SDS011;3055;50.886;14.814;2024-01-11T11:15:54;133.17;;;64.50;;
6053;SDS011;3055;50.886;14.814;2024-01-11T11:18:22;134.80;;;68.00;;
6053;SDS011;3055;50.886;14.814;2024-01-11T11:20:50;125.57;;;68.97;;
6053;SDS011;3055;50.886;14.814;2024-01-11T11:23:19;140.10;;;71.30;;
6053;SDS011;3055;50.886;14.814;2024-01-11T11:25:47;125.30;;;62.33;;
6053;SDS011;3055;50.886;14.814;2024-01-11T11:28:15;132.07;;;63.27;;
6053;SDS011;3055;50.886;14.814;2024-01-11T11:30:48;114.93;;;61.63;;
6053;SDS011;3055;50.886;14.814;2024-01-11T11:33:17;109.83;;;55.53;;
6053;SDS011;3055;50.886;14.814;2024-01-11T11:35:45;102.00;;;52.93;;
6053;SDS011;3055;50.886;14.814;2024-01-11T11:38:20;101.93;;;53.50;;
6053;SDS011;3055;50.886;14.814;2024-01-11T11:40:48;94.53;;;50.17;;
6053;SDS011;3055;50.886;14.814;2024-01-11T11:43:18;89.60;;;47.10;;
6053;SDS011;3055;50.886;14.814;2024-01-11T11:45:48;98.07;;;51.27;;
6053;SDS011;3055;50.886;14.814;2024-01-11T11:51:21;85.27;;;44.73;;
6053;SDS011;3055;50.886;14.814;2024-01-11T11:53:49;74.87;;;42.93;;
6053;SDS011;3055;50.886;14.814;2024-01-11T11:56:18;56.93;;;34.07;;
6053;SDS011;3055;50.886;14.814;2024-01-11T11:58:47;54.13;;;31.63;;
6053;SDS011;3055;50.886;14.814;2024-01-11T12:01:16;55.27;;;33.57;;
6053;SDS011;3055;50.886;14.814;2024-01-11T12:03:44;59.20;;;37.30;;
6053;SDS011;3055;50.886;14.814;2024-01-11T12:06:16;62.93;;;37.63;;
6053;SDS011;3055;50.886;14.814;2024-01-11T12:08:44;74.23;;;40.40;;
6053;SDS011;3055;50.886;14.814;2024-01-11T12:11:16;63.90;;;39.27;;
6053;SDS011;3055;50.886;14.814;2024-01-11T12:13:46;65.13;;;37.10;;
6053;SDS011;3055;50.886;14.814;2024-01-11T12:16:13;78.70;;;42.27;;
6053;SDS011;3055;50.886;14.814;2024-01-11T12:18:42;86.93;;;44.40;;
6053;SDS011;3055;50.886;14.814;2024-01-11T12:21:09;71.30;;;40.47;;
6053;SDS011;3055;50.886;14.814;2024-01-11T12:23:38;64.03;;;35.40;;
6053;SDS011;3055;50.886;14.814;2024-01-11T12:26:07;63.03;;;37.87;;
6053;SDS011;3055;50.886;14.814;2024-01-11T12:28:38;50.60;;;28.47;;
6053;SDS011;3055;50.886;14.814;2024-01-11T12:31:07;41.80;;;27.30;;
6053;SDS011;3055;50.886;14.814;2024-01-11T12:33:34;52.27;;;29.77;;
6053;SDS011;3055;50.886;14.814;2024-01-11T12:36:05;47.87;;;28.20;;
6053;SDS011;3055;50.886;14.814;2024-01-11T12:38:35;45.33;;;27.77;;
6053;SDS011;3055;50.886;14.814;2024-01-11T12:41:03;45.47;;;27.53;;
6053;SDS011;3055;50.886;14.814;2024-01-11T12:43:31;60.50;;;34.23;;
6053;SDS011;3055;50.886;14.814;2024-01-11T12:45:59;58.27;;;37.23;;
6053;SDS011;3055;50.886;14.814;2024-01-11T12:48:27;62.50;;;35.80;;
6053;SDS011;3055;50.886;14.814;2024-01-11T12:50:55;64.87;;;35.27;;
6053;SDS011;3055;50.886;14.814;2024-01-11T12:53:24;50.53;;;32.37;;
6053;SDS011;3055;50.886;14.814;2024-01-11T12:56:02;51.13;;;31.30;;
6053;SDS011;3055;50.886;14.814;2024-01-11T12:58:33;58.80;;;34.60;;
6053;SDS011;3055;50.886;14.814;2024-01-11T13:01:01;62.00;;;33.53;;
6053;SDS011;3055;50.886;14.814;2024-01-11T13:03:29;58.87;;;30.67;;
6053;SDS011;3055;50.886;14.814;2024-01-11T13:05:56;49.67;;;30.97;;
6053;SDS011;3055;50.886;14.814;2024-01-11T13:08:25;47.47;;;28.93;;
6053;SDS011;3055;50.886;14.814;2024-01-11T13:10:54;44.33;;;27.77;;
6053;SDS011;3055;50.886;14.814;2024-01-11T13:13:21;45.80;;;31.23;;
6053;SDS011;3055;50.886;14.814;2024-01-11T13:15:48;52.63;;;29.57;;
6053;SDS011;3055;50.886;14.814;2024-01-11T13:18:16;44.77;;;29.73;;
6053;SDS011;3055;50.886;14.814;2024-01-11T13:20:43;45.73;;;28.30;;
6053;SDS011;3055;50.886;14.814;2024-01-11T13:23:12;47.60;;;29.10;;
6053;SDS011;3055;50.886;14.814;2024-01-11T13:25:42;43.13;;;27.27;;
6053;SDS011;3055;50.886;14.814;2024-01-11T13:28:09;28.03;;;17.50;;
6053;SDS011;3055;50.886;14.814;2024-01-11T13:30:37;26.43;;;15.57;;
6053;SDS011;3055;50.886;14.814;2024-01-11T13:33:05;19.60;;;12.03;;
6053;SDS011;3055;50.886;14.814;2024-01-11T13:35:33;19.70;;;12.73;;
6053;SDS011;3055;50.886;14.814;2024-01-11T13:38:00;21.67;;;12.63;;
6053;SDS011;3055;50.886;14.814;2024-01-11T13:40:28;18.57;;;12.70;;
6053;SDS011;3055;50.886;14.814;2024-01-11T13:42:57;21.47;;;13.27;;
6053;SDS011;3055;50.886;14.814;2024-01-11T13:45:25;22.60;;;13.30;;
6053;SDS011;3055;50.886;14.814;2024-01-11T13:47:53;21.03;;;12.73;;
6053;SDS011;3055;50.886;14.814;2024-01-11T13:50:20;24.27;;;13.47;;
6053;SDS011;3055;50.886;14.814;2024-01-11T13:52:49;20.13;;;13.30;;
6053;SDS011;3055;50.886;14.814;2024-01-11T13:55:16;22.87;;;13.37;;
6053;SDS011;3055;50.886;14.814;2024-01-11T13:57:46;21.13;;;13.83;;
6053;SDS011;3055;50.886;14.814;2024-01-11T14:00:15;21.73;;;13.57;;
6053;SDS011;3055;50.886;14.814;2024-01-11T14:02:43;23.77;;;13.83;;
6053;SDS011;3055;50.886;14.814;2024-01-11T14:05:11;22.10;;;13.70;;
6053;SDS011;3055;50.886;14.814;2024-01-11T14:07:40;26.00;;;14.63;;
6053;SDS011;3055;50.886;14.814;2024-01-11T14:10:08;25.17;;;14.60;;
6053;SDS011;3055;50.886;14.814;2024-01-11T14:12:36;23.67;;;14.00;;
6053;SDS011;3055;50.886;14.814;2024-01-11T14:15:04;24.10;;;15.83;;
6053;SDS011;3055;50.886;14.814;2024-01-11T14:17:34;24.43;;;15.70;;
6053;SDS011;3055;50.886;14.814;2024-01-11T14:20:01;24.47;;;14.83;;
6053;SDS011;3055;50.886;14.814;2024-01-11T14:22:31;24.13;;;14.67;;
6053;SDS011;3055;50.886;14.814;2024-01-11T14:24:58;23.43;;;14.97;;
6053;SDS011;3055;50.886;14.814;2024-01-11T14:27:25;25.10;;;14.90;;
6053;SDS011;3055;50.886;14.814;2024-01-11T14:29:53;25.13;;;15.57;;
6053;SDS011;3055;50.886;14.814;2024-01-11T14:32:20;29.70;;;17.77;;
6053;SDS011;3055;50.886;14.814;2024-01-11T14:34:48;26.90;;;17.13;;
6053;SDS011;3055;50.886;14.814;2024-01-11T14:37:16;28.03;;;15.90;;
6053;SDS011;3055;50.886;14.814;2024-01-11T14:39:43;25.50;;;14.87;;
6053;SDS011;3055;50.886;14.814;2024-01-11T14:42:10;24.93;;;15.60;;